Time;durP1;ratioP1;P1;durP2;ratioP2;P2;SDS_P1;SDS_P2;PMS_P1;PMS_P2;Temp;Humidity;BMP_temperature;BMP_pressure;BME280_temperature;BME280_humidity;BME280_pressure;Samples;Min_cycle;Max_cycle;Signal;HPM_P1;HPM_P2
2022/05/19 00:01:06;;;;;;;6.13;2.08;;;;;;;-149.78;100.00;50182.00;5132600;27;20042;-75
2022/05/19 00:03:35;;;;;;;7.13;1.98;;;;;;;-149.78;100.00;50168.31;5117357;28;20032;-76
2022/05/19 00:06:04;;;;;;;6.07;2.35;;;;;;;-149.78;100.00;50156.56;5117133;28;20054;-76
2022/05/19 00:08:30;;;;;;;3.17;2.08;;;;;;;-149.78;100.00;50158.53;5121846;27;20023;-76
2022/05/19 00:11:00;;;;;;;3.58;2.10;;;;;;;-149.78;100.00;50174.19;5137233;27;20031;-76
2022/05/19 00:13:28;;;;;;;4.57;2.20;;;;;;;-149.78;100.00;50174.19;5137609;27;20370;-76
2022/05/19 00:15:54;;;;;;;5.03;2.42;;;;;;;-149.78;100.00;50178.09;5137631;27;20027;-76
2022/05/19 00:18:20;;;;;;;3.13;1.70;;;;;;;-149.78;100.00;50154.63;5119219;27;20061;-76
2022/05/19 00:20:46;;;;;;;4.82;1.88;;;;;;;-149.78;100.00;50140.94;5119193;27;20084;-76
2022/05/19 00:23:13;;;;;;;2.45;1.58;;;;;;;-149.78;100.00;50174.19;5137289;27;20027;-76
2022/05/19 00:25:39;;;;;;;5.95;2.10;;;;;;;-149.78;100.00;50150.72;5119037;27;20118;-76
2022/05/19 00:28:05;;;;;;;7.57;2.30;;;;;;;-149.78;100.00;50146.81;5137373;27;20119;-76
2022/05/19 00:30:32;;;;;;;5.25;1.98;;;;;;;-149.78;100.00;50205.47;5101839;27;20042;-76
2022/05/19 00:32:58;;;;;;;4.93;1.98;;;;;;;-149.78;100.00;50178.09;5137205;27;20034;-76
2022/05/19 00:35:24;;;;;;;3.80;1.98;;;;;;;-149.78;100.00;50182.00;5118918;27;20035;-76
2022/05/19 00:37:49;;;;;;;4.88;2.20;;;;;;;-149.78;100.00;50170.25;5118898;27;20031;-76
2022/05/19 00:40:19;;;;;;;2.88;1.55;;;;;;;-149.78;100.00;50180.03;5118850;27;20039;-76
2022/05/19 00:42:44;;;;;;;3.33;1.98;;;;;;;-149.78;100.00;50166.34;5118751;27;20027;-76
2022/05/19 00:45:53;;;;;;;3.58;2.08;;;;;;;-149.78;100.00;50170.25;5137129;27;20118;-76
2022/05/19 00:48:24;;;;;;;3.65;1.63;;;;;;;-149.78;100.00;50160.50;5136473;27;20069;-76
2022/05/19 00:50:55;;;;;;;4.72;2.08;;;;;;;-149.78;100.00;50228.94;5136831;27;20035;-76
2022/05/19 00:53:38;;;;;;;2.95;1.75;;;;;;;-149.78;100.00;50154.63;5135824;27;20031;-76
2022/05/19 00:56:15;;;;;;;3.78;1.65;;;;;;;-149.78;100.00;50162.44;5118682;27;20047;-76
2022/05/19 00:58:48;;;;;;;4.25;2.00;;;;;;;-149.78;100.00;50135.06;5137004;27;20034;-76
2022/05/19 01:01:14;;;;;;;3.13;1.30;;;;;;;-149.78;100.00;50178.09;5136669;27;20027;-76
2022/05/19 01:03:49;;;;;;;6.70;2.15;;;;;;;-149.78;100.00;50185.91;5134543;27;20019;-76
2022/05/19 01:06:18;;;;;;;8.50;2.13;;;;;;;-149.78;100.00;50182.00;5118221;27;20370;-76
2022/05/19 01:08:44;;;;;;;5.03;2.30;;;;;;;-149.78;100.00;50182.00;5096735;27;20148;-76
2022/05/19 01:11:11;;;;;;;6.13;2.63;;;;;;;-149.78;100.00;50197.66;5136388;27;20118;-76
2022/05/19 01:13:37;;;;;;;5.28;2.25;;;;;;;-149.78;100.00;50178.09;5136205;27;20075;-75
2022/05/19 01:16:05;;;;;;;6.25;2.78;;;;;;;-149.78;100.00;50234.81;5134743;27;20027;-75
2022/05/19 01:18:32;;;;;;;6.03;2.60;;;;;;;-149.78;100.00;50201.56;5136419;27;20027;-75
2022/05/19 01:20:59;;;;;;;6.85;2.78;;;;;;;-149.78;100.00;50203.50;5101047;27;20359;-76
2022/05/19 01:23:41;;;;;;;4.38;2.65;;;;;;;-149.78;100.00;50240.66;5136150;27;20034;-75
2022/05/19 01:26:21;;;;;;;4.90;2.17;;;;;;;-149.78;100.00;50170.25;5136187;27;20479;-76
2022/05/19 01:28:48;;;;;;;6.07;2.20;;;;;;;-149.78;100.00;50209.38;5135076;27;20031;-75
2022/05/19 01:31:47;;;;;;;7.55;2.53;;;;;;;-149.78;100.00;50215.25;5135800;27;20027;-75
2022/05/19 01:34:14;;;;;;;6.18;2.92;;;;;;;-149.78;100.00;50207.44;5136181;27;20520;-75
2022/05/19 01:36:41;;;;;;;7.05;2.20;;;;;;;-149.78;100.00;50217.19;5136128;27;20038;-75
2022/05/19 01:39:13;;;;;;;5.68;2.58;;;;;;;-149.78;100.00;50197.66;5135799;27;20550;-75
2022/05/19 01:42:09;;;;;;;3.30;2.20;;;;;;;-149.78;100.00;50182.00;5117087;27;20058;-75
2022/05/19 01:44:53;;;;;;;6.68;2.20;;;;;;;-149.78;100.00;50209.38;5128744;27;20019;-75
2022/05/19 01:47:28;;;;;;;4.75;2.28;;;;;;;-149.78;100.00;50232.84;5117260;27;20039;-75
2022/05/19 01:50:03;;;;;;;7.32;2.60;;;;;;;-149.78;100.00;50203.50;5097086;28;20034;-75
2022/05/19 01:52:36;;;;;;;7.07;2.30;;;;;;;-149.78;100.00;50236.75;5123001;27;20035;-75
2022/05/19 01:55:02;;;;;;;4.80;2.30;;;;;;;-149.78;100.00;50209.38;5135628;27;20074;-75
2022/05/19 01:57:45;;;;;;;6.40;2.97;;;;;;;-149.78;100.00;50225.03;5135830;27;20030;-75
2022/05/19 02:00:18;;;;;;;7.68;2.60;;;;;;;-149.78;100.00;50217.19;5135742;27;20427;-75
2022/05/19 02:02:48;;;;;;;8.13;2.53;;;;;;;-149.78;100.00;50244.59;5117551;27;20373;-75
2022/05/19 02:05:20;;;;;;;6.40;2.22;;;;;;;-149.78;100.00;50256.31;5135090;27;20035;-75
2022/05/19 02:07:51;;;;;;;7.78;2.40;;;;;;;-149.78;100.00;50226.97;5135449;27;20114;-69
2022/05/19 02:10:29;;;;;;;9.98;2.38;;;;;;;-149.78;100.00;50248.50;5116885;27;20113;-70
2022/05/19 02:12:57;;;;;;;6.00;2.25;;;;;;;-149.78;100.00;50205.47;5134999;27;20110;-70
2022/05/19 02:15:26;;;;;;;5.85;2.33;;;;;;;-149.78;100.00;50226.97;5135070;27;20042;-69
2022/05/19 02:17:52;;;;;;;7.40;2.10;;;;;;;-149.78;100.00;50232.84;5134719;27;20031;-69
2022/05/19 02:20:21;;;;;;;5.45;2.28;;;;;;;-149.78;100.00;50211.34;5116530;27;20110;-69
2022/05/19 02:22:47;;;;;;;7.43;2.85;;;;;;;-149.78;100.00;50225.03;5130676;27;20029;-69
2022/05/19 02:25:31;;;;;;;5.75;2.75;;;;;;;-149.78;100.00;50217.19;5116385;27;20035;-69
2022/05/19 02:27:59;;;;;;;5.38;2.42;;;;;;;-149.78;100.00;50197.66;5135036;27;20390;-69
2022/05/19 02:30:28;;;;;;;5.45;2.85;;;;;;;-149.78;100.00;50205.47;5134881;27;20055;-69
2022/05/19 02:32:54;;;;;;;5.32;2.78;;;;;;;-149.78;100.00;50189.81;5134613;27;20031;-69
2022/05/19 02:35:21;;;;;;;8.50;3.25;;;;;;;-149.78;100.00;50248.50;5134735;27;20042;-69
2022/05/19 02:37:47;;;;;;;5.82;2.92;;;;;;;-149.78;100.00;50248.50;5115798;27;20038;-69
2022/05/19 02:40:16;;;;;;;8.32;3.25;;;;;;;-149.78;100.00;50228.94;5099301;27;20125;-69
2022/05/19 02:42:41;;;;;;;6.88;3.20;;;;;;;-149.78;100.00;50205.47;5116207;27;20023;-69
2022/05/19 02:45:09;;;;;;;6.95;3.03;;;;;;;-149.78;100.00;50228.94;5134488;27;20031;-69
2022/05/19 02:47:35;;;;;;;6.93;2.95;;;;;;;-149.78;100.00;50205.47;5099278;27;20035;-69
2022/05/19 02:50:01;;;;;;;5.47;2.70;;;;;;;-149.78;100.00;50226.97;5116144;27;20038;-69
2022/05/19 02:52:27;;;;;;;7.25;3.65;;;;;;;-149.78;100.00;50242.63;5116069;27;20039;-69
2022/05/19 02:54:52;;;;;;;7.18;3.10;;;;;;;-149.78;100.00;50226.97;5134250;27;20050;-69
2022/05/19 02:57:18;;;;;;;9.05;3.58;;;;;;;-149.78;100.00;50178.09;5116137;27;20084;-69
2022/05/19 02:59:44;;;;;;;4.80;3.13;;;;;;;-149.78;100.00;50209.38;5116104;28;20031;-69
2022/05/19 03:02:10;;;;;;;8.10;3.15;;;;;;;-149.78;100.00;50242.63;5116138;28;20023;-69
2022/05/19 03:04:36;;;;;;;7.53;3.28;;;;;;;-149.78;100.00;50213.28;5116265;28;20039;-69
2022/05/19 03:07:01;;;;;;;9.00;3.17;;;;;;;-149.78;100.00;50213.28;5134103;27;20027;-69
2022/05/19 03:09:27;;;;;;;9.25;3.63;;;;;;;-149.78;100.00;50238.72;5134099;27;20386;-69
2022/05/19 03:11:52;;;;;;;8.13;3.88;;;;;;;-149.78;100.00;50236.75;5134019;27;20031;-69
2022/05/19 03:14:18;;;;;;;9.25;3.72;;;;;;;-149.78;100.00;50213.28;5134055;27;20113;-69
2022/05/19 03:16:44;;;;;;;7.28;3.35;;;;;;;-149.78;100.00;50234.81;5133337;27;20371;-69
2022/05/19 03:19:09;;;;;;;8.70;4.25;;;;;;;-149.78;100.00;50209.38;5115552;28;20385;-69
2022/05/19 03:21:36;;;;;;;8.25;4.32;;;;;;;-149.78;100.00;50225.03;5115720;28;20359;-69
2022/05/19 03:24:02;;;;;;;9.95;3.85;;;;;;;-149.78;100.00;50221.13;5115906;28;20087;-69
2022/05/19 03:26:28;;;;;;;14.98;4.65;;;;;;;-149.78;100.00;50240.66;5134307;28;20118;-69
2022/05/19 03:28:54;;;;;;;12.15;4.38;;;;;;;-149.78;100.00;50230.88;5125541;28;20438;-69
2022/05/19 03:31:19;;;;;;;9.30;4.20;;;;;;;-149.78;100.00;50189.81;5131766;28;20031;-69
2022/05/19 03:33:45;;;;;;;9.18;4.03;;;;;;;-149.78;100.00;50226.97;5133975;28;20047;-69
2022/05/19 03:36:11;;;;;;;12.10;4.38;;;;;;;-149.78;100.00;50242.63;5134129;28;20042;-69
2022/05/19 03:38:36;;;;;;;11.05;4.72;;;;;;;-149.78;100.00;50232.84;5133854;28;20031;-69
2022/05/19 03:41:02;;;;;;;11.60;5.22;;;;;;;-149.78;100.00;50213.28;5115287;28;20079;-69
2022/05/19 03:43:28;;;;;;;12.57;5.10;;;;;;;-149.78;100.00;50244.59;5115131;28;20058;-69
2022/05/19 03:45:54;;;;;;;12.80;5.32;;;;;;;-149.78;100.00;50252.41;5115286;28;20103;-69
2022/05/19 03:48:20;;;;;;;12.23;4.70;;;;;;;-149.78;100.00;50236.75;5115120;28;20473;-69
2022/05/19 03:50:47;;;;;;;12.82;6.07;;;;;;;-149.78;100.00;50258.28;5115355;28;20484;-69
2022/05/19 03:53:13;;;;;;;11.90;4.85;;;;;;;-149.78;100.00;50221.13;5133228;28;20670;-69
2022/05/19 03:55:39;;;;;;;7.55;3.92;;;;;;;-149.78;100.00;50252.41;5106797;28;20134;-69
2022/05/19 03:58:05;;;;;;;13.20;4.60;;;;;;;-149.78;100.00;50256.31;5133704;28;20126;-69
2022/05/19 04:00:31;;;;;;;9.48;4.70;;;;;;;-149.78;100.00;50232.84;5114933;28;20087;-69
2022/05/19 04:02:59;;;;;;;9.02;4.85;;;;;;;-149.78;100.00;50209.38;5115104;28;20027;-69
2022/05/19 04:05:26;;;;;;;9.90;3.45;;;;;;;-149.78;100.00;50232.84;5115034;28;20050;-69
2022/05/19 04:07:52;;;;;;;14.85;4.00;;;;;;;-149.78;100.00;50291.50;5132327;28;20390;-69
2022/05/19 04:10:18;;;;;;;9.30;3.58;;;;;;;-149.78;100.00;50281.75;5114888;28;20038;-69
2022/05/19 04:12:44;;;;;;;8.65;3.17;;;;;;;-149.78;100.00;50240.66;5122701;28;20035;-69
2022/05/19 04:15:10;;;;;;;10.68;3.70;;;;;;;-149.78;100.00;50211.34;5133392;28;20087;-69
2022/05/19 04:17:36;;;;;;;5.85;3.05;;;;;;;-149.78;100.00;50279.78;5133939;28;20035;-69
2022/05/19 04:20:05;;;;;;;7.75;3.40;;;;;;;-149.78;100.00;50273.91;5133490;28;20031;-69
2022/05/19 04:22:32;;;;;;;7.38;3.20;;;;;;;-149.78;100.00;50205.47;5133062;28;20027;-69
2022/05/19 04:25:00;;;;;;;5.00;2.78;;;;;;;-149.78;100.00;50221.13;5133608;28;20383;-69
2022/05/19 04:27:27;;;;;;;6.85;3.08;;;;;;;-149.78;100.00;50248.50;5096050;28;20031;-69
2022/05/19 04:29:54;;;;;;;10.27;2.95;;;;;;;-149.78;100.00;50268.03;5074892;27;20031;-69
2022/05/19 04:32:20;;;;;;;9.13;3.80;;;;;;;-149.78;100.00;50252.41;5137118;27;20039;-69
2022/05/19 04:34:46;;;;;;;7.93;3.22;;;;;;;-149.78;100.00;50225.03;5137151;27;20084;-69
2022/05/19 04:37:12;;;;;;;8.15;3.25;;;;;;;-149.78;100.00;50252.41;5118524;27;20129;-69
2022/05/19 04:39:38;;;;;;;10.35;3.53;;;;;;;-149.78;100.00;50221.13;5137202;27;20035;-69
2022/05/19 04:42:08;;;;;;;7.13;3.25;;;;;;;-149.78;100.00;50240.66;5118086;27;20042;-69
2022/05/19 04:44:34;;;;;;;7.00;3.17;;;;;;;-149.78;100.00;50217.19;5137227;27;20033;-69
2022/05/19 04:47:00;;;;;;;10.65;4.00;;;;;;;-149.78;100.00;50213.28;5101679;27;20039;-69
2022/05/19 04:49:26;;;;;;;9.90;3.47;;;;;;;-149.78;100.00;50273.91;5118327;27;20031;-69
2022/05/19 04:51:51;;;;;;;12.93;2.90;;;;;;;-149.78;100.00;50232.84;5114209;27;20039;-69
2022/05/19 04:54:17;;;;;;;9.00;3.28;;;;;;;-149.78;100.00;50168.31;5099478;28;20126;-69
2022/05/19 04:56:43;;;;;;;7.18;2.83;;;;;;;-149.78;100.00;50238.72;5105873;27;20031;-69
2022/05/19 04:59:15;;;;;;;10.20;2.88;;;;;;;-149.78;100.00;50221.13;5119056;27;20030;-69
2022/05/19 05:01:45;;;;;;;7.55;3.03;;;;;;;-149.78;100.00;50250.44;5117951;27;20413;-69
2022/05/19 05:04:11;;;;;;;5.07;2.58;;;;;;;-149.78;100.00;50213.28;5099944;28;20035;-69
2022/05/19 05:06:39;;;;;;;9.30;2.90;;;;;;;-149.78;100.00;50185.91;5096943;28;20039;-69
2022/05/19 05:09:05;;;;;;;9.43;2.78;;;;;;;-149.78;100.00;50221.13;5115327;28;20030;-69
2022/05/19 05:11:31;;;;;;;6.88;2.97;;;;;;;-149.78;100.00;50232.84;5115838;28;20106;-69
2022/05/19 05:13:56;;;;;;;9.23;2.90;;;;;;;-149.78;100.00;50217.19;5115470;28;20440;-69
2022/05/19 05:16:22;;;;;;;7.18;2.60;;;;;;;-149.78;100.00;50221.13;5096128;27;20047;-69
2022/05/19 05:18:48;;;;;;;9.02;2.35;;;;;;;-149.78;100.00;50207.44;5083515;28;20073;-69
2022/05/19 05:21:14;;;;;;;10.98;2.70;;;;;;;-149.78;100.00;50209.38;5097567;28;20042;-69
2022/05/19 05:23:41;;;;;;;6.22;2.30;;;;;;;-149.78;100.00;50201.56;5131254;27;20366;-69
2022/05/19 05:26:08;;;;;;;9.05;2.35;;;;;;;-149.78;100.00;50197.66;5115607;28;20042;-69
2022/05/19 05:28:35;;;;;;;7.82;2.38;;;;;;;-149.78;100.00;50225.03;5124507;27;20505;-69
2022/05/19 05:31:01;;;;;;;4.57;1.92;;;;;;;-149.78;100.00;50244.59;5115770;28;20088;-69
2022/05/19 05:33:27;;;;;;;5.05;2.00;;;;;;;-149.78;100.00;50236.75;5097138;28;20067;-69
2022/05/19 05:35:52;;;;;;;6.05;2.40;;;;;;;-149.78;100.00;50205.47;5115514;28;20371;-69
2022/05/19 05:38:18;;;;;;;6.57;2.17;;;;;;;-149.78;100.00;50201.56;5096224;27;20039;-69
2022/05/19 05:40:45;;;;;;;8.25;2.10;;;;;;;-149.78;100.00;50197.66;5131553;27;20113;-69
2022/05/19 05:43:14;;;;;;;7.57;1.70;;;;;;;-149.78;100.00;50236.75;5114634;27;20023;-69
2022/05/19 05:45:40;;;;;;;6.63;2.20;;;;;;;-149.78;100.00;50213.28;5122910;27;20485;-69
2022/05/19 05:48:07;;;;;;;5.90;1.85;;;;;;;-149.78;100.00;50209.38;5118825;27;20055;-69
2022/05/19 05:50:32;;;;;;;6.45;2.22;;;;;;;-149.78;100.00;50193.72;5096244;27;20415;-70
2022/05/19 05:52:58;;;;;;;5.60;1.92;;;;;;;-149.78;100.00;50195.69;5099607;28;20032;-69
2022/05/19 05:55:24;;;;;;;6.40;1.88;;;;;;;-149.78;100.00;50226.97;5116862;27;20096;-69
2022/05/19 05:57:49;;;;;;;6.30;2.38;;;;;;;-149.78;100.00;50211.34;5120985;27;20034;-69
2022/05/19 06:00:18;;;;;;;8.60;2.65;;;;;;;-149.78;100.00;50189.81;5115603;27;20051;-70
2022/05/19 06:02:44;;;;;;;6.60;2.38;;;;;;;-149.78;100.00;50225.03;5127866;27;20532;-70
2022/05/19 06:05:12;;;;;;;8.07;1.98;;;;;;;-149.78;100.00;50201.56;5120791;27;20052;-69
2022/05/19 06:07:39;;;;;;;9.80;3.47;;;;;;;-149.78;100.00;50185.91;5120602;27;20031;-69
2022/05/19 06:10:05;;;;;;;7.45;2.67;;;;;;;-149.78;100.00;50209.38;5126053;27;20059;-69
2022/05/19 06:12:32;;;;;;;11.85;2.83;;;;;;;-149.78;100.00;50217.19;5083363;28;20032;-70
2022/05/19 06:14:57;;;;;;;5.25;2.15;;;;;;;-149.78;100.00;50228.94;5108869;27;20539;-70
2022/05/19 06:17:24;;;;;;;10.65;2.40;;;;;;;-149.78;100.00;50209.38;5092681;27;20070;-69
2022/05/19 06:19:50;;;;;;;4.18;2.30;;;;;;;-149.78;100.00;50223.06;5116927;27;20039;-70
2022/05/19 06:22:17;;;;;;;6.35;2.50;;;;;;;-149.78;100.00;50195.69;5094651;27;20027;-70
2022/05/19 06:24:44;;;;;;;4.40;2.25;;;;;;;-149.78;100.00;50215.25;5100327;28;20084;-70
2022/05/19 06:27:10;;;;;;;4.10;2.13;;;;;;;-149.78;100.00;50225.03;5093870;27;20083;-70
2022/05/19 06:29:36;;;;;;;5.50;2.03;;;;;;;-149.78;100.00;50217.19;5079438;28;20039;-70
2022/05/19 06:32:02;;;;;;;10.20;2.50;;;;;;;-149.78;100.00;50209.38;5096295;28;20032;-70
2022/05/19 06:34:28;;;;;;;4.85;2.08;;;;;;;-149.78;100.00;50209.38;5128195;27;20118;-69
2022/05/19 06:36:56;;;;;;;5.38;2.15;;;;;;;-149.78;100.00;50199.59;5126824;27;20102;-71
2022/05/19 06:39:22;;;;;;;7.05;2.22;;;;;;;-149.78;100.00;50201.56;5078668;28;20640;-70
2022/05/19 06:42:02;;;;;;;4.50;2.17;;;;;;;-149.78;100.00;50185.91;5095004;28;20039;-70
2022/05/19 06:44:34;;;;;;;3.88;1.80;;;;;;;-149.78;100.00;50174.19;5080592;28;20038;-70
2022/05/19 06:47:00;;;;;;;6.30;2.65;;;;;;;-149.78;100.00;50197.66;5101941;27;20108;-70
2022/05/19 06:49:27;;;;;;;11.23;2.30;;;;;;;-149.78;100.00;50166.34;5106813;27;20019;-70
2022/05/19 06:51:53;;;;;;;10.38;2.22;;;;;;;-149.78;100.00;50205.47;5109551;27;20367;-71
2022/05/19 06:54:20;;;;;;;7.82;2.83;;;;;;;-149.78;100.00;50166.34;5121865;27;20399;-71
2022/05/19 06:56:47;;;;;;;9.23;2.22;;;;;;;-149.78;100.00;50170.25;5100780;28;20032;-70
2022/05/19 06:59:15;;;;;;;7.20;2.10;;;;;;;-149.78;100.00;50148.75;5104793;28;20117;-70
2022/05/19 07:01:42;;;;;;;6.65;2.10;;;;;;;-149.78;100.00;50185.91;5117595;27;20051;-70
2022/05/19 07:04:08;;;;;;;7.55;2.75;;;;;;;-149.78;100.00;50162.44;5124077;27;20031;-72
2022/05/19 07:06:34;;;;;;;6.32;2.00;;;;;;;-149.78;100.00;50174.19;5119681;28;20027;-69
2022/05/19 07:08:59;;;;;;;6.60;2.13;;;;;;;-149.78;100.00;50160.50;5117951;27;20058;-71
2022/05/19 07:11:25;;;;;;;7.82;2.55;;;;;;;-149.78;100.00;50183.97;5095197;28;20390;-71
2022/05/19 07:14:06;;;;;;;9.30;2.13;;;;;;;-149.78;100.00;50162.44;5122153;27;20159;-70
2022/05/19 07:16:32;;;;;;;5.13;2.38;;;;;;;-149.78;100.00;50164.41;5117611;28;20491;-71
2022/05/19 07:21:46;;;;;;;6.63;2.85;;;;;;;-149.78;100.00;50187.88;5121440;28;20027;-71
2022/05/19 07:24:15;;;;;;;8.70;3.20;;;;;;;-149.78;100.00;50162.44;5118477;28;20023;-71
2022/05/19 07:26:47;;;;;;;11.57;3.78;;;;;;;-149.78;100.00;50236.75;5102121;28;20030;-71
2022/05/19 07:29:14;;;;;;;11.75;4.15;;;;;;;-149.78;100.00;50183.97;5103337;28;20024;-71
2022/05/19 07:31:41;;;;;;;9.25;3.88;;;;;;;-149.78;100.00;50201.56;5121453;28;20039;-71
2022/05/19 07:34:11;;;;;;;7.78;4.15;;;;;;;-149.78;100.00;50189.81;5119986;28;20092;-71
2022/05/19 07:36:37;;;;;;;8.18;4.55;;;;;;;-149.78;100.00;50189.81;5122904;28;20028;-71
2022/05/19 07:39:03;;;;;;;11.52;5.10;;;;;;;-149.78;100.00;50185.91;5114657;28;20134;-71
2022/05/19 07:41:31;;;;;;;9.57;5.45;;;;;;;-149.78;100.00;50201.56;5112969;28;20565;-72
2022/05/19 07:43:57;;;;;;;10.65;4.95;;;;;;;-149.78;100.00;50197.66;5106785;28;20092;-71
2022/05/19 07:46:27;;;;;;;12.20;4.57;;;;;;;-149.78;100.00;50205.47;5115061;28;20032;-71
2022/05/19 07:48:54;;;;;;;10.75;4.45;;;;;;;-149.78;100.00;50197.66;5133915;28;20088;-70
2022/05/19 07:51:33;;;;;;;15.65;4.70;;;;;;;-149.78;100.00;50215.25;5133786;28;20119;-71
2022/05/19 07:53:59;;;;;;;9.73;4.65;;;;;;;-149.78;100.00;50193.72;5133591;28;20431;-70
2022/05/19 07:56:25;;;;;;;19.15;4.60;;;;;;;-149.78;100.00;50242.63;5133928;28;20118;-71
2022/05/19 07:58:50;;;;;;;7.25;3.80;;;;;;;-149.78;100.00;50164.41;5064889;28;20130;-70
2022/05/19 08:01:16;;;;;;;9.20;4.13;;;;;;;-149.78;100.00;50207.44;5115525;28;20041;-71
2022/05/19 08:03:43;;;;;;;9.02;3.70;;;;;;;-149.78;100.00;50185.91;5117290;27;20104;-71
2022/05/19 08:06:10;;;;;;;13.32;4.55;;;;;;;-149.78;100.00;50166.34;5137768;27;20035;-71
2022/05/19 08:08:40;;;;;;;12.43;4.00;;;;;;;-149.78;100.00;50152.66;5137679;27;20063;-71
2022/05/19 08:11:07;;;;;;;8.48;3.80;;;;;;;-149.78;100.00;50201.56;5137836;27;20058;-71
2022/05/19 08:16:17;;;;;;;12.23;4.10;;;;;;;-149.78;100.00;50158.53;5119261;27;20138;-71
2022/05/19 08:18:43;;;;;;;11.68;4.03;;;;;;;-149.78;100.00;50205.47;5137514;27;20114;-72
2022/05/19 08:21:11;;;;;;;12.15;4.15;;;;;;;-149.78;100.00;50225.03;5137517;27;20118;-71
2022/05/19 08:23:43;;;;;;;7.38;3.25;;;;;;;-149.78;100.00;50189.81;5134153;27;20023;-71
2022/05/19 08:26:09;;;;;;;;;;;;;;;-149.78;100.00;50170.25;5122106;27;20027;-71
2022/05/19 08:28:36;;;;;;;9.77;3.30;;;;;;;-149.78;100.00;50170.25;5098585;28;19966;-71
2022/05/19 08:31:05;;;;;;;8.02;3.58;;;;;;;-149.78;100.00;50197.66;5116752;28;20474;-71
2022/05/19 08:33:32;;;;;;;12.65;3.58;;;;;;;-149.78;100.00;50178.09;5098389;28;20035;-71
2022/05/19 08:35:58;;;;;;;7.90;3.30;;;;;;;-149.78;100.00;50189.81;5100991;27;20035;-71
2022/05/19 08:38:24;;;;;;;9.27;3.47;;;;;;;-149.78;100.00;50211.34;5133439;27;20042;-71
2022/05/19 08:40:54;;;;;;;7.47;3.47;;;;;;;-149.78;100.00;50182.00;5118567;27;20435;-71
2022/05/19 08:43:29;;;;;;;13.23;3.83;;;;;;;-149.78;100.00;50168.31;5133446;27;20020;-71
2022/05/19 08:45:58;;;;;;;10.38;3.28;;;;;;;-149.78;100.00;50195.69;5118281;27;20058;-71
2022/05/19 08:48:26;;;;;;;10.05;3.13;;;;;;;-149.78;100.00;50178.09;5123148;27;20455;-71
2022/05/19 08:50:57;;;;;;;7.30;2.95;;;;;;;-149.78;100.00;50150.72;5119582;27;20479;-71
2022/05/19 08:53:26;;;;;;;8.73;3.08;;;;;;;-149.78;100.00;50197.66;5116969;27;20050;-71
2022/05/19 08:55:57;;;;;;;7.90;3.00;;;;;;;-149.78;100.00;50219.16;5115544;28;20092;-71
2022/05/19 08:58:47;;;;;;;9.05;3.35;;;;;;;-149.78;100.00;50209.38;5116347;27;20554;-71
2022/05/19 09:01:30;;;;;;;14.20;3.75;;;;;;;-149.78;100.00;50230.88;5115633;28;20479;-71
2022/05/19 09:04:23;;;;;;;10.85;3.88;;;;;;;-149.78;100.00;50189.81;5126079;27;20023;-71
2022/05/19 09:10:02;;;;;;;9.05;3.28;;;;;;;-149.78;100.00;50170.25;5136574;27;20038;-71
2022/05/19 09:12:33;;;;;;;7.47;4.00;;;;;;;-149.78;100.00;50209.38;5136502;27;20067;-72
2022/05/19 09:14:59;;;;;;;8.07;3.60;;;;;;;-149.78;100.00;50170.25;5135372;27;20027;-71
2022/05/19 09:17:30;;;;;;;10.48;3.83;;;;;;;-149.78;100.00;50213.28;5101315;27;20126;-71
2022/05/19 09:20:00;;;;;;;10.93;3.80;;;;;;;-149.78;100.00;50135.06;5118109;27;20027;-71
2022/05/19 09:22:33;;;;;;;9.45;4.25;;;;;;;-149.78;100.00;50107.69;5136188;27;20072;-72
2022/05/19 09:25:04;;;;;;;13.32;5.18;;;;;;;-149.78;100.00;50072.50;5136310;27;20027;-71
2022/05/19 09:27:33;;;;;;;13.18;4.65;;;;;;;-149.78;100.00;50033.38;5117970;27;20042;-71
2022/05/19 09:29:58;;;;;;;13.98;5.50;;;;;;;-149.78;100.00;50037.28;5136164;27;20035;-71
2022/05/19 09:32:37;;;;;;;10.55;4.85;;;;;;;-149.78;100.00;50013.81;5135853;27;20050;-70
2022/05/19 09:35:39;;;;;;;13.07;8.27;;;;;;;-149.78;100.00;50037.28;5117703;27;20122;-69
2022/05/19 09:38:17;;;;;;;10.18;5.95;;;;;;;-149.78;100.00;50037.28;5079292;27;20043;-69
2022/05/19 09:40:47;;;;;;;11.75;5.35;;;;;;;-149.78;100.00;50095.94;5135930;27;20481;-70
2022/05/19 09:43:15;;;;;;;14.63;5.10;;;;;;;-149.78;100.00;50127.25;5135989;27;20023;-69
2022/05/19 09:45:47;;;;;;;8.55;5.25;;;;;;;-149.78;100.00;50107.69;5117130;27;20024;-70
2022/05/19 09:48:14;;;;;;;14.35;6.22;;;;;;;-149.78;100.00;50074.44;5124277;27;20109;-70
2022/05/19 09:50:46;;;;;;;13.23;6.13;;;;;;;-149.78;100.00;50131.16;5096959;28;20035;-70
2022/05/19 09:53:23;;;;;;;9.73;4.75;;;;;;;-149.78;100.00;50129.19;5112621;27;20035;-71
2022/05/19 09:55:56;;;;;;;9.38;3.67;;;;;;;-149.78;100.00;50111.59;5135227;27;20042;-71
2022/05/19 09:58:29;;;;;;;6.72;3.40;;;;;;;-149.78;100.00;50099.88;5134166;27;20031;-71
2022/05/19 10:01:03;;;;;;;6.50;3.38;;;;;;;-149.78;100.00;50111.59;5132257;27;20050;-71
2022/05/19 10:03:37;;;;;;;7.32;3.25;;;;;;;-149.78;100.00;50115.50;5122129;27;20043;-72
2022/05/19 10:06:07;;;;;;;6.90;2.83;;;;;;;-149.78;100.00;50158.53;5079748;28;20379;-71
2022/05/19 10:08:41;;;;;;;9.68;3.17;;;;;;;-149.78;100.00;50127.25;5115059;28;20023;-71
2022/05/19 10:11:13;;;;;;;6.05;2.75;;;;;;;-149.78;100.00;50142.88;5114798;28;20023;-71
2022/05/19 10:13:45;;;;;;;7.40;3.20;;;;;;;-149.78;100.00;50111.59;5114590;27;20020;-71
2022/05/19 10:16:23;;;;;;;;;;;;;;;-149.78;100.00;50107.69;5121325;27;20027;-71
2022/05/19 10:19:01;;;;;;;7.68;2.65;;;;;;;-149.78;100.00;50105.72;5114148;27;19916;-71
2022/05/19 10:21:40;;;;;;;8.80;3.47;;;;;;;-149.78;100.00;50092.03;5113983;28;20039;-71
2022/05/19 10:24:34;;;;;;;6.53;3.00;;;;;;;-149.78;100.00;50109.66;5114375;28;20051;-71
2022/05/19 10:33:27;;;;;;;8.48;3.40;;;;;;;-149.78;100.00;50125.28;5114251;28;20031;-70
2022/05/19 10:36:24;;;;;;;9.82;3.47;;;;;;;-149.78;100.00;50150.72;5114258;28;20063;-69
2022/05/19 10:39:09;;;;;;;10.82;3.00;;;;;;;-149.78;100.00;50111.59;5121900;27;20035;-69
2022/05/19 10:42:13;;;;;;;11.85;3.83;;;;;;;-149.78;100.00;50166.34;5116699;27;20023;-70
2022/05/19 10:44:56;;;;;;;7.32;3.40;;;;;;;-149.78;100.00;50138.97;5059260;28;20040;-72
2022/05/19 10:47:46;;;;;;;16.67;6.05;;;;;;;-149.78;100.00;50127.25;5114079;28;20027;-70
2022/05/19 10:50:35;;;;;;;8.98;3.60;;;;;;;-149.78;100.00;50142.88;5119687;27;20072;-71
2022/05/19 10:53:19;;;;;;;9.55;3.70;;;;;;;-149.78;100.00;50144.84;5122015;27;20032;-70
2022/05/19 10:56:00;;;;;;;8.85;3.65;;;;;;;-149.78;100.00;50150.72;5134413;27;20107;-71
2022/05/19 10:58:47;;;;;;;10.90;4.03;;;;;;;-149.78;100.00;50119.41;5134505;27;20035;-71
2022/05/19 11:01:25;;;;;;;8.50;3.67;;;;;;;-149.78;100.00;50103.78;5134434;27;20631;-71
2022/05/19 11:03:51;;;;;;;6.32;3.90;;;;;;;-149.78;100.00;50138.97;5133328;27;20031;-71
2022/05/19 11:06:32;;;;;;;9.38;4.75;;;;;;;-149.78;100.00;50146.81;5109500;27;20035;-71
2022/05/19 11:09:00;;;;;;;10.23;5.30;;;;;;;-149.78;100.00;50107.69;5115261;27;20092;-71
2022/05/19 11:11:53;;;;;;;9.88;5.53;;;;;;;-149.78;100.00;50119.41;5115766;27;20382;-71
2022/05/19 11:14:32;;;;;;;;;;;;;;;-149.78;100.00;50135.06;5134583;27;20031;-71
2022/05/19 11:17:09;;;;;;;10.15;5.68;;;;;;;-149.78;100.00;50166.34;5121124;28;20088;-71
2022/05/19 11:19:52;;;;;;;9.75;4.32;;;;;;;-149.78;100.00;50148.75;5117646;28;20444;-72
2022/05/19 11:22:24;;;;;;;9.55;4.00;;;;;;;-149.78;100.00;50117.47;5102097;28;20030;-72
2022/05/19 11:28:00;;;;;;;9.02;4.55;;;;;;;-149.78;100.00;50178.09;5134369;28;20424;-71
2022/05/19 11:30:36;;;;;;;9.52;4.10;;;;;;;-149.78;100.00;50187.88;5115900;28;20031;-71
2022/05/19 11:33:06;;;;;;;5.70;4.20;;;;;;;-149.78;100.00;50174.19;5134052;28;20576;-71
2022/05/19 11:35:47;;;;;;;5.68;3.90;;;;;;;-149.78;100.00;50140.94;5098748;28;20500;-71
2022/05/19 11:38:24;;;;;;;8.82;4.13;;;;;;;-149.78;100.00;50127.25;5135024;27;20031;-71
2022/05/19 11:41:18;;;;;;;9.57;3.80;;;;;;;-149.78;100.00;50154.63;5119772;27;20087;-71